Time,TemperatureF,DewpointF,PressureIn,WindDirection,WindDirectionDegrees,WindSpeedMPH,WindSpeedGustMPH,Humidity,HourlyPrecipIn,Conditions,Clouds,dailyrainin,SoftwareType,DateUTC
2013-07-02 00:02:00,63.9,55.1,30.10,NE,40,1.0,3.0,73,0.00,,,0.00,Wunderground v.1.15,2013-07-02 05:02:00,
2013-07-02 00:08:00,63.6,55.2,30.10,NE,39,2.0,2.0,74,0.00,,,0.00,Wunderground v.1.15,2013-07-02 05:08:00,
2013-07-02 00:14:00,63.9,55.4,30.09,NE,39,1.0,1.0,74,0.00,,,0.00,Wunderground v.1.15,2013-07-02 05:14:00,
2013-07-02 00:19:00,64.3,55.8,30.09,NE,40,0.0,1.0,74,0.00,,,0.00,Wunderground v.1.15,2013-07-02 05:19:00,
2013-07-02 00:25:00,64.2,55.7,30.09,NE,39,0.0,1.0,74,0.00,,,0.00,Wunderground v.1.15,2013-07-02 05:25:00,
2013-07-02 00:31:00,64.2,55.4,30.09,NE,40,1.0,1.0,73,0.00,,,0.00,Wunderground v.1.15,2013-07-02 05:31:00,
2013-07-02 00:37:00,65.1,55.5,30.09,NE,40,1.0,1.0,71,0.00,,,0.00,Wunderground v.1.15,2013-07-02 05:37:00,
2013-07-02 00:42:00,65.7,55.6,30.09,NE,40,2.0,2.0,70,0.00,,,0.00,Wunderground v.1.15,2013-07-02 05:42:00,
2013-07-02 00:48:00,65.6,55.9,30.09,NNE,32,3.0,3.0,71,0.00,,,0.00,Wunderground v.1.15,2013-07-02 05:48:00,
2013-07-02 00:53:00,65.3,55.7,30.09,NNE,32,1.0,2.0,71,0.00,,,0.00,Wunderground v.1.15,2013-07-02 05:53:00,
2013-07-02 00:59:00,65.0,55.8,30.09,NNE,32,1.0,2.0,72,0.00,,,0.00,Wunderground v.1.15,2013-07-02 05:59:00,
2013-07-02 01:05:00,64.8,55.9,30.09,NNE,32,1.0,2.0,73,0.00,,,0.00,Wunderground v.1.15,2013-07-02 06:05:00,
2013-07-02 01:10:00,64.8,56.3,30.09,NNE,32,0.0,2.0,74,0.00,,,0.00,Wunderground v.1.15,2013-07-02 06:10:00,
2013-07-02 01:16:00,64.7,56.6,30.10,NNE,32,0.0,2.0,75,0.00,,,0.00,Wunderground v.1.15,2013-07-02 06:16:00,
2013-07-02 01:22:00,64.9,56.8,30.09,NNE,32,1.0,2.0,75,0.00,,,0.00,Wunderground v.1.15,2013-07-02 06:22:00,
2013-07-02 01:28:00,65.1,56.6,30.10,NNE,32,0.0,1.0,74,0.00,,,0.00,Wunderground v.1.15,2013-07-02 06:28:00,
2013-07-02 01:34:00,65.2,57.4,30.10,SE,141,9.0,9.0,76,0.00,,,0.00,Wunderground v.1.15,2013-07-02 06:34:00,
2013-07-02 01:40:00,64.6,56.5,30.10,SE,132,2.0,9.0,75,0.00,,,0.00,Wunderground v.1.15,2013-07-02 06:40:00,
2013-07-02 01:45:00,64.8,57.1,30.10,SSE,152,1.0,2.0,76,0.00,,,0.00,Wunderground v.1.15,2013-07-02 06:45:00,
2013-07-02 01:50:00,64.6,56.9,30.10,SSE,152,1.0,2.0,76,0.00,,,0.00,Wunderground v.1.15,2013-07-02 06:50:00,
2013-07-02 01:56:00,64.9,56.4,30.10,SSE,152,1.0,2.0,74,0.00,,,0.00,Wunderground v.1.15,2013-07-02 06:56:00,
2013-07-02 02:02:00,65.4,56.5,30.10,SSE,152,0.0,2.0,73,0.00,,,0.00,Wunderground v.1.15,2013-07-02 07:02:00,
2013-07-02 02:07:00,66.1,55.2,30.09,SSE,152,2.0,2.0,68,0.00,,,0.00,Wunderground v.1.15,2013-07-02 07:07:00,
2013-07-02 02:12:00,66.5,56.0,30.09,ENE,59,2.0,3.0,69,0.00,,,0.00,Wunderground v.1.15,2013-07-02 07:12:00,
2013-07-02 02:17:00,65.6,57.1,30.09,ENE,59,2.0,2.0,74,0.00,,,0.00,Wunderground v.1.15,2013-07-02 07:17:00,
2013-07-02 02:22:00,65.0,56.9,30.09,ENE,59,1.0,2.0,75,0.00,,,0.00,Wunderground v.1.15,2013-07-02 07:22:00,
2013-07-02 02:27:00,64.9,56.4,30.09,ENE,59,2.0,2.0,74,0.00,,,0.00,Wunderground v.1.15,2013-07-02 07:27:00,
2013-07-02 02:32:00,65.1,56.6,30.09,ENE,59,2.0,3.0,74,0.00,,,0.00,Wunderground v.1.15,2013-07-02 07:32:00,
2013-07-02 02:37:00,65.2,55.9,30.09,ENE,59,1.0,2.0,72,0.00,,,0.00,Wunderground v.1.15,2013-07-02 07:37:00,
2013-07-02 02:42:00,65.8,55.3,30.09,ENE,59,2.0,2.0,69,0.00,,,0.00,Wunderground v.1.15,2013-07-02 07:42:00,
2013-07-02 02:47:00,66.7,55.4,30.09,ENE,59,2.0,2.0,67,0.00,,,0.00,Wunderground v.1.15,2013-07-02 07:47:00,
2013-07-02 02:52:00,66.9,55.6,30.09,ENE,59,2.0,3.0,67,0.00,,,0.00,Wunderground v.1.15,2013-07-02 07:52:00,
2013-07-02 02:57:00,66.2,56.5,30.09,NE,35,2.0,3.0,71,0.00,,,0.00,Wunderground v.1.15,2013-07-02 07:57:00,
2013-07-02 03:02:00,64.7,56.6,30.09,NE,35,0.0,3.0,75,0.00,,,0.00,Wunderground v.1.15,2013-07-02 08:02:00,
2013-07-02 03:07:00,63.6,56.3,30.09,NE,35,1.0,2.0,77,0.00,,,0.00,Wunderground v.1.15,2013-07-02 08:07:00,
2013-07-02 03:13:00,63.5,55.8,30.09,NE,35,2.0,2.0,76,0.00,,,0.00,Wunderground v.1.15,2013-07-02 08:13:00,
2013-07-02 03:18:00,63.8,55.7,30.08,NE,35,2.0,2.0,75,0.00,,,0.00,Wunderground v.1.15,2013-07-02 08:18:00,
2013-07-02 03:23:00,64.1,55.6,30.08,NE,35,2.0,3.0,74,0.00,,,0.00,Wunderground v.1.15,2013-07-02 08:23:00,
2013-07-02 03:28:00,64.2,55.4,30.08,NE,35,2.0,2.0,73,0.00,,,0.00,Wunderground v.1.15,2013-07-02 08:28:00,
2013-07-02 03:33:00,64.0,55.5,30.09,North,5,3.0,3.0,74,0.00,,,0.00,Wunderground v.1.15,2013-07-02 08:33:00,
2013-07-02 03:38:00,63.7,55.6,30.08,NW,321,3.0,3.0,75,0.00,,,0.00,Wunderground v.1.15,2013-07-02 08:38:00,
2013-07-02 03:43:00,63.5,55.4,30.09,NW,321,2.0,3.0,75,0.00,,,0.00,Wunderground v.1.15,2013-07-02 08:43:00,
2013-07-02 03:48:00,62.7,55.4,30.09,NW,321,1.0,3.0,77,0.00,,,0.00,Wunderground v.1.15,2013-07-02 08:48:00,
2013-07-02 03:53:00,62.2,55.6,30.09,NW,321,2.0,3.0,79,0.00,,,0.00,Wunderground v.1.15,2013-07-02 08:53:00,
2013-07-02 03:58:00,62.0,55.8,30.09,NW,321,1.0,3.0,80,0.00,,,0.00,Wunderground v.1.15,2013-07-02 08:58:00,
2013-07-02 04:03:00,62.0,56.1,30.09,NW,321,1.0,3.0,81,0.00,,,0.00,Wunderground v.1.15,2013-07-02 09:03:00,
2013-07-02 04:08:00,61.7,56.1,30.08,NW,321,2.0,2.0,82,0.00,,,0.00,Wunderground v.1.15,2013-07-02 09:08:00,
2013-07-02 04:13:00,61.3,56.1,30.08,NW,321,2.0,3.0,83,0.00,,,0.00,Wunderground v.1.15,2013-07-02 09:13:00,
2013-07-02 04:18:00,61.1,55.6,30.08,NNW,340,2.0,3.0,82,0.00,,,0.00,Wunderground v.1.15,2013-07-02 09:18:00,
2013-07-02 04:23:00,61.3,55.8,30.09,North,355,2.0,3.0,82,0.00,,,0.00,Wunderground v.1.15,2013-07-02 09:23:00,
2013-07-02 04:28:00,61.2,55.3,30.09,North,355,2.0,2.0,81,0.00,,,0.00,Wunderground v.1.15,2013-07-02 09:28:00,
2013-07-02 04:33:00,61.1,55.2,30.09,North,355,1.0,2.0,81,0.00,,,0.00,Wunderground v.1.15,2013-07-02 09:33:00,
2013-07-02 04:38:00,61.4,54.8,30.09,North,355,2.0,2.0,79,0.00,,,0.00,Wunderground v.1.15,2013-07-02 09:38:00,
2013-07-02 04:43:00,61.9,55.0,30.09,North,355,2.0,2.0,78,0.00,,,0.00,Wunderground v.1.15,2013-07-02 09:43:00,
2013-07-02 04:48:00,62.2,54.9,30.09,North,355,1.0,2.0,77,0.00,,,0.00,Wunderground v.1.15,2013-07-02 09:48:00,
2013-07-02 04:53:00,62.4,54.7,30.08,North,355,1.0,2.0,76,0.00,,,0.00,Wunderground v.1.15,2013-07-02 09:53:00,
2013-07-02 04:58:00,62.5,54.5,30.09,North,355,2.0,3.0,75,0.00,,,0.00,Wunderground v.1.15,2013-07-02 09:58:00,
2013-07-02 05:03:00,62.5,54.5,30.09,North,355,3.0,3.0,75,0.00,,,0.00,Wunderground v.1.15,2013-07-02 10:03:00,
2013-07-02 05:08:00,62.3,54.6,30.08,NNW,330,2.0,3.0,76,0.00,,,0.00,Wunderground v.1.15,2013-07-02 10:08:00,
2013-07-02 05:13:00,62.3,54.6,30.08,NNW,330,3.0,3.0,76,0.00,,,0.00,Wunderground v.1.15,2013-07-02 10:13:00,
2013-07-02 05:18:00,62.5,54.5,30.09,NW,323,3.0,4.0,75,0.00,,,0.00,Wunderground v.1.15,2013-07-02 10:18:00,
2013-07-02 05:23:00,62.6,54.9,30.09,NW,323,2.0,3.0,76,0.00,,,0.00,Wunderground v.1.15,2013-07-02 10:23:00,
2013-07-02 05:28:00,62.2,54.9,30.09,NNE,30,3.0,4.0,77,0.00,,,0.00,Wunderground v.1.15,2013-07-02 10:28:00,
2013-07-02 05:33:00,61.3,54.4,30.09,NNE,24,2.0,3.0,78,0.00,,,0.00,Wunderground v.1.15,2013-07-02 10:33:00,
2013-07-02 05:38:00,59.7,53.5,30.09,NNE,24,2.0,3.0,80,0.00,,,0.00,Wunderground v.1.15,2013-07-02 10:38:00,
2013-07-02 05:43:00,58.6,53.5,30.09,NNE,24,2.0,2.0,83,0.00,,,0.00,Wunderground v.1.15,2013-07-02 10:43:00,
2013-07-02 05:48:00,58.1,53.3,30.09,NNE,24,2.0,3.0,84,0.00,,,0.00,Wunderground v.1.15,2013-07-02 10:48:00,
2013-07-02 05:53:00,57.9,53.4,30.09,NNE,24,2.0,2.0,85,0.00,,,0.00,Wunderground v.1.15,2013-07-02 10:53:00,
2013-07-02 05:58:00,57.8,53.6,30.09,NNE,24,1.0,2.0,86,0.00,,,0.00,Wunderground v.1.15,2013-07-02 10:58:00,
2013-07-02 06:03:00,58.3,54.1,30.09,NNE,24,1.0,2.0,86,0.00,,,0.00,Wunderground v.1.15,2013-07-02 11:03:00,
2013-07-02 06:08:00,59.0,54.2,30.09,NNE,24,1.0,2.0,84,0.00,,,0.00,Wunderground v.1.15,2013-07-02 11:08:00,
2013-07-02 06:13:00,59.7,54.5,30.09,NNE,24,2.0,2.0,83,0.00,,,0.00,Wunderground v.1.15,2013-07-02 11:13:00,
2013-07-02 06:18:00,60.4,55.2,30.09,NNE,24,2.0,3.0,83,0.00,,,0.00,Wunderground v.1.15,2013-07-02 11:18:00,
2013-07-02 06:23:00,60.5,55.3,30.09,NNE,24,2.0,2.0,83,0.00,,,0.00,Wunderground v.1.15,2013-07-02 11:23:00,
2013-07-02 06:28:00,60.5,55.3,30.09,NNE,24,1.0,2.0,83,0.00,,,0.00,Wunderground v.1.15,2013-07-02 11:28:00,
2013-07-02 06:34:00,60.7,55.5,30.10,NNE,24,1.0,2.0,83,0.00,,,0.00,Wunderground v.1.15,2013-07-02 11:34:00,
2013-07-02 06:38:00,60.8,55.6,30.10,NNW,329,3.0,3.0,83,0.00,,,0.00,Wunderground v.1.15,2013-07-02 11:38:00,
2013-07-02 06:44:00,61.0,55.8,30.10,NNW,329,2.0,3.0,83,0.00,,,0.00,Wunderground v.1.15,2013-07-02 11:44:00,
2013-07-02 06:48:00,61.4,56.2,30.10,NNW,329,3.0,4.0,83,0.00,,,0.00,Wunderground v.1.15,2013-07-02 11:48:00,
2013-07-02 06:53:00,61.7,56.1,30.10,NW,324,3.0,3.0,82,0.00,,,0.00,Wunderground v.1.15,2013-07-02 11:53:00,
2013-07-02 06:59:00,61.8,56.2,30.10,NW,321,3.0,3.0,82,0.00,,,0.00,Wunderground v.1.15,2013-07-02 11:59:00,
2013-07-02 07:04:00,62.1,56.2,30.10,NW,322,3.0,4.0,81,0.00,,,0.00,Wunderground v.1.15,2013-07-02 12:04:00,
2013-07-02 07:09:00,62.5,56.6,30.10,North,355,3.0,4.0,81,0.00,,,0.00,Wunderground v.1.15,2013-07-02 12:09:00,
2013-07-02 07:14:00,62.7,57.1,30.10,NNW,348,3.0,4.0,82,0.00,,,0.00,Wunderground v.1.15,2013-07-02 12:14:00,
2013-07-02 07:19:00,62.7,57.1,30.10,NNE,17,3.0,4.0,82,0.00,,,0.00,Wunderground v.1.15,2013-07-02 12:19:00,
2013-07-02 07:24:00,63.1,57.5,30.10,North,10,4.0,4.0,82,0.00,,,0.00,Wunderground v.1.15,2013-07-02 12:24:00,
2013-07-02 07:29:00,63.8,57.9,30.10,North,360,4.0,5.0,81,0.00,,,0.00,Wunderground v.1.15,2013-07-02 12:29:00,
2013-07-02 07:34:00,64.5,57.8,30.10,North,5,4.0,5.0,79,0.00,,,0.00,Wunderground v.1.15,2013-07-02 12:34:00,
2013-07-02 07:39:00,65.1,58.8,30.10,North,9,5.0,5.0,80,0.00,,,0.00,Wunderground v.1.15,2013-07-02 12:39:00,
2013-07-02 07:44:00,65.6,58.2,30.10,NNE,17,4.0,7.0,77,0.00,,,0.00,Wunderground v.1.15,2013-07-02 12:44:00,
2013-07-02 07:49:00,66.0,58.2,30.10,NNE,19,7.0,7.0,76,0.00,,,0.00,Wunderground v.1.15,2013-07-02 12:49:00,
2013-07-02 07:54:00,66.4,58.2,30.09,NNE,28,5.0,6.0,75,0.00,,,0.00,Wunderground v.1.15,2013-07-02 12:54:00,
2013-07-02 07:59:00,66.8,58.6,30.10,NNE,17,4.0,8.0,75,0.00,,,0.00,Wunderground v.1.15,2013-07-02 12:59:00,
2013-07-02 08:04:00,67.4,58.8,30.09,North,355,3.0,5.0,74,0.00,,,0.00,Wunderground v.1.15,2013-07-02 13:04:00,
2013-07-02 08:09:00,67.9,58.5,30.09,North,10,3.0,5.0,72,0.00,,,0.00,Wunderground v.1.15,2013-07-02 13:09:00,
2013-07-02 08:14:00,68.6,59.2,30.09,NNE,31,5.0,8.0,72,0.00,,,0.00,Wunderground v.1.15,2013-07-02 13:14:00,
2013-07-02 08:19:00,69.2,59.0,30.10,NNE,19,3.0,8.0,70,0.00,,,0.00,Wunderground v.1.15,2013-07-02 13:19:00,
2013-07-02 08:24:00,69.8,59.2,30.10,NNE,23,3.0,5.0,69,0.00,,,0.00,Wunderground v.1.15,2013-07-02 13:24:00,
2013-07-02 08:29:00,70.2,59.6,30.10,NNE,24,4.0,6.0,69,0.00,,,0.00,Wunderground v.1.15,2013-07-02 13:29:00,
2013-07-02 08:34:00,70.5,59.0,30.10,NE,40,3.0,5.0,67,0.00,,,0.00,Wunderground v.1.15,2013-07-02 13:34:00,
2013-07-02 08:39:00,70.9,59.8,30.10,NE,35,4.0,6.0,68,0.00,,,0.00,Wunderground v.1.15,2013-07-02 13:39:00,
2013-07-02 08:44:00,71.3,59.4,30.10,NE,40,7.0,9.0,66,0.00,,,0.00,Wunderground v.1.15,2013-07-02 13:44:00,
2013-07-02 08:49:00,71.1,59.6,30.10,NE,49,5.0,9.0,67,0.00,,,0.00,Wunderground v.1.15,2013-07-02 13:49:00,
2013-07-02 08:55:00,71.3,61.0,30.10,NE,53,4.0,9.0,70,0.00,,,0.00,Wunderground v.1.15,2013-07-02 13:55:00,
2013-07-02 09:00:00,71.6,60.1,30.09,NNE,24,5.0,9.0,67,0.00,,,0.00,Wunderground v.1.15,2013-07-02 14:00:00,
2013-07-02 09:05:00,71.8,60.2,30.09,North,360,5.0,8.0,67,0.00,,,0.00,Wunderground v.1.15,2013-07-02 14:05:00,
2013-07-02 09:10:00,72.3,61.6,30.09,NE,36,4.0,8.0,69,0.00,,,0.00,Wunderground v.1.15,2013-07-02 14:10:00,
2013-07-02 09:15:00,73.1,60.2,30.09,NNE,31,4.0,9.0,64,0.00,,,0.00,Wunderground v.1.15,2013-07-02 14:15:00,
2013-07-02 09:20:00,73.7,60.3,30.09,NE,42,9.0,10.0,63,0.00,,,0.00,Wunderground v.1.15,2013-07-02 14:20:00,
2013-07-02 09:25:00,74.2,59.4,30.09,NNE,17,7.0,10.0,60,0.00,,,0.00,Wunderground v.1.15,2013-07-02 14:25:00,
2013-07-02 09:30:00,74.5,59.2,30.09,NE,45,5.0,10.0,59,0.00,,,0.00,Wunderground v.1.15,2013-07-02 14:30:00,
2013-07-02 09:35:00,74.5,60.2,30.09,NE,37,6.0,10.0,61,0.00,,,0.00,Wunderground v.1.15,2013-07-02 14:35:00,
2013-07-02 09:40:00,75.0,59.7,30.09,NE,38,9.0,11.0,59,0.00,,,0.00,Wunderground v.1.15,2013-07-02 14:40:00,
2013-07-02 09:45:00,75.3,59.0,30.09,NNE,26,4.0,12.0,57,0.00,,,0.00,Wunderground v.1.15,2013-07-02 14:45:00,
2013-07-02 09:50:00,75.5,57.7,30.09,NNE,12,9.0,12.0,54,0.00,,,0.00,Wunderground v.1.15,2013-07-02 14:50:00,
2013-07-02 09:55:00,75.8,58.0,30.09,NE,47,9.0,10.0,54,0.00,,,0.00,Wunderground v.1.15,2013-07-02 14:55:00,
2013-07-02 10:00:00,76.2,58.3,30.09,NE,37,6.0,11.0,54,0.00,,,0.00,Wunderground v.1.15,2013-07-02 15:00:00,
2013-07-02 10:05:00,76.4,59.0,30.08,NE,38,5.0,10.0,55,0.00,,,0.00,Wunderground v.1.15,2013-07-02 15:05:00,
2013-07-02 10:10:00,76.7,57.2,30.08,NNE,31,8.0,14.0,51,0.00,,,0.00,Wunderground v.1.15,2013-07-02 15:10:00,
2013-07-02 10:15:00,76.7,57.2,30.08,NE,44,6.0,12.0,51,0.00,,,0.00,Wunderground v.1.15,2013-07-02 15:15:00,
2013-07-02 10:20:00,76.7,58.3,30.08,NE,51,6.0,12.0,53,0.00,,,0.00,Wunderground v.1.15,2013-07-02 15:20:00,
2013-07-02 10:25:00,77.0,59.1,30.08,NNE,28,5.0,9.0,54,0.00,,,0.00,Wunderground v.1.15,2013-07-02 15:25:00,
2013-07-02 10:31:00,77.5,58.5,30.08,NE,53,9.0,10.0,52,0.00,,,0.00,Wunderground v.1.15,2013-07-02 15:31:00,
2013-07-02 10:36:00,77.6,57.5,30.08,North,5,9.0,12.0,50,0.00,,,0.00,Wunderground v.1.15,2013-07-02 15:36:00,
2013-07-02 10:41:00,77.9,58.9,30.09,NE,35,7.0,13.0,52,0.00,,,0.00,Wunderground v.1.15,2013-07-02 15:41:00,
2013-07-02 10:46:00,78.1,56.2,30.08,NNE,26,9.0,13.0,47,0.00,,,0.00,Wunderground v.1.15,2013-07-02 15:46:00,
2013-07-02 10:51:00,78.0,57.9,30.08,NNE,22,8.0,13.0,50,0.00,,,0.00,Wunderground v.1.15,2013-07-02 15:51:00,
2013-07-02 10:56:00,78.3,58.1,30.08,NE,55,5.0,10.0,50,0.00,,,0.00,Wunderground v.1.15,2013-07-02 15:56:00,
2013-07-02 11:01:00,78.5,55.4,30.08,NE,55,11.0,12.0,45,0.00,,,0.00,Wunderground v.1.15,2013-07-02 16:01:00,
2013-07-02 11:06:00,78.2,55.7,30.08,NNE,25,12.0,12.0,46,0.00,,,0.00,Wunderground v.1.15,2013-07-02 16:06:00,
2013-07-02 11:11:00,78.4,56.5,30.08,NE,46,10.0,12.0,47,0.00,,,0.00,Wunderground v.1.15,2013-07-02 16:11:00,
2013-07-02 11:16:00,78.7,56.2,30.08,NNE,22,10.0,15.0,46,0.00,,,0.00,Wunderground v.1.15,2013-07-02 16:16:00,
2013-07-02 11:21:00,78.6,54.9,30.08,NE,49,11.0,15.0,44,0.00,,,0.00,Wunderground v.1.15,2013-07-02 16:21:00,
2013-07-02 11:26:00,78.7,55.0,30.08,NNE,24,6.0,13.0,44,0.00,,,0.00,Wunderground v.1.15,2013-07-02 16:26:00,
2013-07-02 11:31:00,78.9,55.1,30.08,NNE,33,9.0,13.0,44,0.00,,,0.00,Wunderground v.1.15,2013-07-02 16:31:00,
2013-07-02 11:36:00,79.3,56.7,30.08,NE,46,10.0,14.0,46,0.00,,,0.00,Wunderground v.1.15,2013-07-02 16:36:00,
2013-07-02 11:41:00,79.4,55.6,30.08,ENE,59,6.0,14.0,44,0.00,,,0.00,Wunderground v.1.15,2013-07-02 16:41:00,
2013-07-02 11:46:00,79.0,53.9,30.08,NE,36,6.0,13.0,42,0.00,,,0.00,Wunderground v.1.15,2013-07-02 16:46:00,
2013-07-02 11:51:00,79.4,55.6,30.08,NE,55,6.0,14.0,44,0.00,,,0.00,Wunderground v.1.15,2013-07-02 16:51:00,
2013-07-02 11:56:00,79.3,54.9,30.08,North,11,13.0,15.0,43,0.00,,,0.00,Wunderground v.1.15,2013-07-02 16:56:00,
2013-07-02 12:01:00,79.7,55.2,30.08,North,10,10.0,15.0,43,0.00,,,0.00,Wunderground v.1.15,2013-07-02 17:01:00,
2013-07-02 12:06:00,79.8,54.0,30.08,ENE,59,10.0,13.0,41,0.00,,,0.00,Wunderground v.1.15,2013-07-02 17:06:00,
2013-07-02 12:11:00,79.9,53.4,30.08,NE,48,10.0,14.0,40,0.00,,,0.00,Wunderground v.1.15,2013-07-02 17:11:00,
2013-07-02 12:16:00,80.3,53.8,30.08,NNW,336,10.0,15.0,40,0.00,,,0.00,Wunderground v.1.15,2013-07-02 17:16:00,
2013-07-02 12:21:00,80.7,55.5,30.08,NE,34,10.0,15.0,42,0.00,,,0.00,Wunderground v.1.15,2013-07-02 17:21:00,
2013-07-02 12:26:00,79.8,54.7,30.08,NNE,15,8.0,10.0,42,0.00,,,0.00,Wunderground v.1.15,2013-07-02 17:26:00,
2013-07-02 12:31:00,80.9,52.9,30.08,NE,42,6.0,13.0,38,0.00,,,0.00,Wunderground v.1.15,2013-07-02 17:31:00,
2013-07-02 12:36:00,80.7,53.4,30.07,NE,49,9.0,11.0,39,0.00,,,0.00,Wunderground v.1.15,2013-07-02 17:36:00,
2013-07-02 12:41:00,81.2,54.6,30.08,ENE,59,10.0,15.0,40,0.00,,,0.00,Wunderground v.1.15,2013-07-02 17:41:00,
2013-07-02 12:46:00,80.9,55.7,30.08,NNW,346,4.0,12.0,42,0.00,,,0.00,Wunderground v.1.15,2013-07-02 17:46:00,
2013-07-02 12:51:00,80.4,53.2,30.07,NNE,13,10.0,14.0,39,0.00,,,0.00,Wunderground v.1.15,2013-07-02 17:51:00,
2013-07-02 12:56:00,80.7,53.4,30.07,NE,42,10.0,14.0,39,0.00,,,0.00,Wunderground v.1.15,2013-07-02 17:56:00,
2013-07-02 13:01:00,80.6,52.6,30.07,North,360,9.0,14.0,38,0.00,,,0.00,Wunderground v.1.15,2013-07-02 18:01:00,
2013-07-02 13:07:00,80.9,52.2,30.07,NE,44,3.0,11.0,37,0.00,,,0.00,Wunderground v.1.15,2013-07-02 18:07:00,
2013-07-02 13:12:00,80.6,54.7,30.07,NNE,28,9.0,13.0,41,0.00,,,0.00,Wunderground v.1.15,2013-07-02 18:12:00,
2013-07-02 13:17:00,81.0,52.3,30.07,NE,40,7.0,13.0,37,0.00,,,0.00,Wunderground v.1.15,2013-07-02 18:17:00,
2013-07-02 13:22:00,80.2,55.0,30.07,East,80,3.0,13.0,42,0.00,,,0.00,Wunderground v.1.15,2013-07-02 18:22:00,
2013-07-02 13:27:00,79.5,53.7,30.06,North,9,5.0,13.0,41,0.00,,,0.00,Wunderground v.1.15,2013-07-02 18:27:00,
2013-07-02 13:32:00,80.8,52.8,30.06,ENE,65,5.0,14.0,38,0.00,,,0.00,Wunderground v.1.15,2013-07-02 18:32:00,
2013-07-02 13:37:00,80.1,52.2,30.06,ENE,57,3.0,11.0,38,0.00,,,0.00,Wunderground v.1.15,2013-07-02 18:37:00,
2013-07-02 13:42:00,80.9,52.9,30.06,NE,53,12.0,14.0,38,0.00,,,0.00,Wunderground v.1.15,2013-07-02 18:42:00,
2013-07-02 13:47:00,81.0,52.3,30.06,ESE,106,6.0,9.0,37,0.00,,,0.00,Wunderground v.1.15,2013-07-02 18:47:00,
2013-07-02 13:52:00,80.7,54.8,30.06,ENE,61,10.0,13.0,41,0.00,,,0.00,Wunderground v.1.15,2013-07-02 18:52:00,
2013-07-02 13:57:00,80.9,55.7,30.06,NE,55,5.0,8.0,42,0.00,,,0.00,Wunderground v.1.15,2013-07-02 18:57:00,
2013-07-02 14:02:00,80.8,52.1,30.06,NNE,24,6.0,13.0,37,0.00,,,0.00,Wunderground v.1.15,2013-07-02 19:02:00,
2013-07-02 14:07:00,80.9,53.6,30.05,NNE,32,4.0,11.0,39,0.00,,,0.00,Wunderground v.1.15,2013-07-02 19:07:00,
2013-07-02 14:12:00,81.4,55.4,30.05,NNE,21,10.0,14.0,41,0.00,,,0.00,Wunderground v.1.15,2013-07-02 19:12:00,
2013-07-02 14:17:00,82.0,55.3,30.05,NE,40,10.0,12.0,40,0.00,,,0.00,Wunderground v.1.15,2013-07-02 19:17:00,
2013-07-02 14:22:00,81.8,55.1,30.05,NE,35,7.0,14.0,40,0.00,,,0.00,Wunderground v.1.15,2013-07-02 19:22:00,
2013-07-02 14:27:00,81.5,54.8,30.05,NE,44,9.0,12.0,40,0.00,,,0.00,Wunderground v.1.15,2013-07-02 19:27:00,
2013-07-02 14:32:00,81.1,54.5,30.05,ENE,65,2.0,14.0,40,0.00,,,0.00,Wunderground v.1.15,2013-07-02 19:32:00,
2013-07-02 14:37:00,79.8,55.3,30.05,ENE,63,9.0,12.0,43,0.00,,,0.00,Wunderground v.1.15,2013-07-02 19:37:00,
2013-07-02 14:42:00,79.9,56.0,30.05,NE,51,9.0,16.0,44,0.00,,,0.00,Wunderground v.1.15,2013-07-02 19:42:00,
2013-07-02 14:47:00,79.4,55.0,30.04,East,80,9.0,9.0,43,0.00,,,0.00,Wunderground v.1.15,2013-07-02 19:47:00,
2013-07-02 14:52:00,79.0,54.6,30.04,ENE,59,9.0,13.0,43,0.00,,,0.00,Wunderground v.1.15,2013-07-02 19:52:00,
2013-07-02 14:57:00,80.1,56.8,30.04,NE,35,9.0,10.0,45,0.00,,,0.00,Wunderground v.1.15,2013-07-02 19:57:00,
2013-07-02 15:02:00,80.3,57.0,30.04,NE,36,10.0,10.0,45,0.00,,,0.00,Wunderground v.1.15,2013-07-02 20:02:00,
2013-07-02 15:07:00,80.3,57.0,30.04,North,9,8.0,13.0,45,0.00,,,0.00,Wunderground v.1.15,2013-07-02 20:07:00,
2013-07-02 15:12:00,79.2,57.2,30.04,NNE,14,10.0,13.0,47,0.00,,,0.00,Wunderground v.1.15,2013-07-02 20:12:00,
2013-07-02 15:17:00,78.3,57.6,30.04,ENE,62,8.0,13.0,49,0.00,,,0.00,Wunderground v.1.15,2013-07-02 20:17:00,
2013-07-02 15:22:00,76.6,56.0,30.04,ENE,71,9.0,13.0,49,0.00,,,0.00,Wunderground v.1.15,2013-07-02 20:22:00,
2013-07-02 15:27:00,77.1,57.0,30.04,ENE,72,9.0,12.0,50,0.00,,,0.00,Wunderground v.1.15,2013-07-02 20:27:00,
2013-07-02 15:32:00,78.7,57.9,30.04,ENE,61,5.0,12.0,49,0.00,,,0.00,Wunderground v.1.15,2013-07-02 20:32:00,
2013-07-02 15:37:00,79.7,58.8,30.04,ENE,69,6.0,12.0,49,0.00,,,0.00,Wunderground v.1.15,2013-07-02 20:37:00,
2013-07-02 15:42:00,78.9,57.0,30.03,East,95,4.0,12.0,47,0.00,,,0.00,Wunderground v.1.15,2013-07-02 20:42:00,
2013-07-02 15:47:00,79.9,58.5,30.03,ENE,67,6.0,9.0,48,0.00,,,0.00,Wunderground v.1.15,2013-07-02 20:47:00,
2013-07-02 15:52:00,80.0,57.4,30.03,ENE,76,3.0,9.0,46,0.00,,,0.00,Wunderground v.1.15,2013-07-02 20:52:00,
2013-07-02 15:57:00,80.1,59.2,30.03,SSE,153,5.0,9.0,49,0.00,,,0.00,Wunderground v.1.15,2013-07-02 20:57:00,
2013-07-02 16:02:00,80.5,57.2,30.03,SSE,165,5.0,11.0,45,0.00,,,0.00,Wunderground v.1.15,2013-07-02 21:02:00,
2013-07-02 16:07:00,80.9,56.3,30.03,SE,134,9.0,10.0,43,0.00,,,0.00,Wunderground v.1.15,2013-07-02 21:07:00,
2013-07-02 16:12:00,80.9,58.2,30.02,SE,129,7.0,11.0,46,0.00,,,0.00,Wunderground v.1.15,2013-07-02 21:12:00,
2013-07-02 16:17:00,80.5,57.2,30.02,East,92,2.0,8.0,45,0.00,,,0.00,Wunderground v.1.15,2013-07-02 21:17:00,
2013-07-02 16:22:00,79.8,55.9,30.02,East,81,3.0,11.0,44,0.00,,,0.00,Wunderground v.1.15,2013-07-02 21:22:00,
2013-07-02 16:27:00,79.2,60.1,30.02,ENE,65,3.0,5.0,52,0.00,,,0.00,Wunderground v.1.15,2013-07-02 21:27:00,
2013-07-02 16:32:00,79.0,56.5,30.02,ENE,62,4.0,8.0,46,0.00,,,0.00,Wunderground v.1.15,2013-07-02 21:32:00,
2013-07-02 16:37:00,79.8,57.2,30.02,ENE,74,4.0,9.0,46,0.00,,,0.00,Wunderground v.1.15,2013-07-02 21:37:00,
2013-07-02 16:42:00,80.5,55.3,30.02,ESE,105,4.0,11.0,42,0.00,,,0.00,Wunderground v.1.15,2013-07-02 21:42:00,
2013-07-02 16:47:00,80.6,56.0,30.02,NE,44,1.0,8.0,43,0.00,,,0.00,Wunderground v.1.15,2013-07-02 21:47:00,
2013-07-02 16:52:00,81.1,55.8,30.01,ENE,66,11.0,11.0,42,0.00,,,0.00,Wunderground v.1.15,2013-07-02 21:52:00,
2013-07-02 16:57:00,80.2,56.3,30.01,ENE,59,11.0,13.0,44,0.00,,,0.00,Wunderground v.1.15,2013-07-02 21:57:00,
2013-07-02 17:03:00,79.1,56.5,30.01,ENE,57,6.0,13.0,46,0.00,,,0.00,Wunderground v.1.15,2013-07-02 22:03:00,
2013-07-02 17:08:00,78.6,56.1,30.02,ENE,69,9.0,10.0,46,0.00,,,0.00,Wunderground v.1.15,2013-07-02 22:08:00,
2013-07-02 17:13:00,78.1,54.4,30.01,East,83,3.0,10.0,44,0.00,,,0.00,Wunderground v.1.15,2013-07-02 22:13:00,
2013-07-02 17:18:00,79.6,57.6,30.01,NE,54,5.0,8.0,47,0.00,,,0.00,Wunderground v.1.15,2013-07-02 22:18:00,
2013-07-02 17:23:00,80.3,57.0,30.01,NE,46,11.0,12.0,45,0.00,,,0.00,Wunderground v.1.15,2013-07-02 22:23:00,
2013-07-02 17:28:00,79.2,56.0,30.01,East,89,7.0,11.0,45,0.00,,,0.00,Wunderground v.1.15,2013-07-02 22:28:00,
2013-07-02 17:33:00,78.8,56.3,30.01,ENE,59,10.0,11.0,46,0.00,,,0.00,Wunderground v.1.15,2013-07-02 22:33:00,
2013-07-02 17:38:00,79.5,56.3,30.00,ENE,69,8.0,13.0,45,0.00,,,0.00,Wunderground v.1.15,2013-07-02 22:38:00,
2013-07-02 17:43:00,79.8,57.8,30.00,NE,53,4.0,13.0,47,0.00,,,0.00,Wunderground v.1.15,2013-07-02 22:43:00,
2013-07-02 17:48:00,79.9,57.3,30.00,ESE,121,8.0,12.0,46,0.00,,,0.00,Wunderground v.1.15,2013-07-02 22:48:00,
2013-07-02 17:53:00,79.9,55.4,30.00,East,84,7.0,12.0,43,0.00,,,0.00,Wunderground v.1.15,2013-07-02 22:53:00,
2013-07-02 17:58:00,79.9,57.3,30.00,ENE,62,5.0,14.0,46,0.00,,,0.00,Wunderground v.1.15,2013-07-02 22:58:00,
2013-07-02 18:03:00,80.1,55.6,30.00,ENE,58,6.0,9.0,43,0.00,,,0.00,Wunderground v.1.15,2013-07-02 23:03:00,
2013-07-02 18:08:00,79.9,56.0,30.00,ENE,58,9.0,10.0,44,0.00,,,0.00,Wunderground v.1.15,2013-07-02 23:08:00,
2013-07-02 18:13:00,79.9,55.4,30.00,NE,40,6.0,9.0,43,0.00,,,0.00,Wunderground v.1.15,2013-07-02 23:13:00,
2013-07-02 18:18:00,79.8,55.3,30.00,NE,49,6.0,11.0,43,0.00,,,0.00,Wunderground v.1.15,2013-07-02 23:18:00,
2013-07-02 18:23:00,79.7,56.5,30.00,ENE,61,1.0,7.0,45,0.00,,,0.00,Wunderground v.1.15,2013-07-02 23:23:00,
2013-07-02 18:28:00,79.5,55.0,30.00,NE,38,4.0,8.0,43,0.00,,,0.00,Wunderground v.1.15,2013-07-02 23:28:00,
2013-07-02 18:29:00,79.5,55.0,30.00,NE,44,4.0,8.0,43,0.00,,,0.00,Wunderground v.1.15,2013-07-02 23:29:00,
2013-07-02 18:34:00,79.5,56.3,30.00,NE,47,7.0,7.0,45,0.00,,,0.00,Wunderground v.1.15,2013-07-02 23:34:00,
2013-07-02 18:39:00,79.2,56.0,30.00,NE,47,3.0,9.0,45,0.00,,,0.00,Wunderground v.1.15,2013-07-02 23:39:00,
2013-07-02 18:44:00,79.1,55.9,30.00,ENE,66,4.0,10.0,45,0.00,,,0.00,Wunderground v.1.15,2013-07-02 23:44:00,
2013-07-02 18:49:00,78.7,56.2,30.00,ENE,58,4.0,10.0,46,0.00,,,0.00,Wunderground v.1.15,2013-07-02 23:49:00,
2013-07-02 18:54:00,77.8,55.4,30.00,NE,53,3.0,5.0,46,0.00,,,0.00,Wunderground v.1.15,2013-07-02 23:54:00,
2013-07-02 18:59:00,77.1,55.9,30.01,NE,34,3.0,5.0,48,0.00,,,0.00,Wunderground v.1.15,2013-07-02 23:59:00,
2013-07-02 19:01:00,77.1,57.6,30.01,ENE,59,2.0,5.0,51,0.00,,,0.00,Wunderground v.1.15,2013-07-03 00:01:00,
2013-07-02 19:06:00,77.0,55.8,30.01,ENE,59,1.0,2.0,48,0.00,,,0.00,Wunderground v.1.15,2013-07-03 00:06:00,
2013-07-02 19:11:00,77.1,59.2,30.01,WSW,253,10.0,11.0,54,0.00,,,0.00,Wunderground v.1.15,2013-07-03 00:11:00,
2013-07-02 19:16:00,75.6,58.8,30.01,West,265,10.0,14.0,56,0.00,,,0.00,Wunderground v.1.15,2013-07-03 00:16:00,
2013-07-02 19:21:00,74.1,58.4,30.02,WSW,254,12.0,14.0,58,0.00,,,0.00,Wunderground v.1.15,2013-07-03 00:21:00,
2013-07-02 19:23:00,73.7,58.0,30.02,West,269,10.0,10.0,58,0.00,,,0.00,Wunderground v.1.15,2013-07-03 00:23:00,
2013-07-02 19:24:00,73.5,58.3,30.02,WNW,282,8.0,11.0,59,0.00,,,0.00,Wunderground v.1.15,2013-07-03 00:24:00,
2013-07-02 19:28:00,72.8,58.1,30.02,West,259,8.0,13.0,60,0.00,,,0.00,Wunderground v.1.15,2013-07-03 00:28:00,
2013-07-02 19:33:00,72.5,57.8,30.02,WSW,243,11.0,13.0,60,0.00,,,0.00,Wunderground v.1.15,2013-07-03 00:33:00,
2013-07-02 19:38:00,72.4,56.8,30.01,West,265,7.0,13.0,58,0.00,,,0.00,Wunderground v.1.15,2013-07-03 00:38:00,
2013-07-02 19:43:00,72.0,56.9,30.01,WSW,254,8.0,13.0,59,0.00,,,0.00,Wunderground v.1.15,2013-07-03 00:43:00,
2013-07-02 19:48:00,71.9,55.8,30.01,West,261,7.0,14.0,57,0.00,,,0.00,Wunderground v.1.15,2013-07-03 00:48:00,
2013-07-02 19:53:00,71.4,56.3,30.01,West,264,8.0,14.0,59,0.00,,,0.00,Wunderground v.1.15,2013-07-03 00:53:00,
2013-07-02 19:58:00,71.0,56.4,30.01,WNW,282,7.0,11.0,60,0.00,,,0.00,Wunderground v.1.15,2013-07-03 00:58:00,
2013-07-02 20:00:00,70.8,56.2,30.01,West,275,6.0,11.0,60,0.00,,,0.00,Wunderground v.1.15,2013-07-03 01:00:00,
2013-07-02 20:03:00,70.6,56.9,30.01,West,273,8.0,8.0,62,0.00,,,0.00,Wunderground v.1.15,2013-07-03 01:03:00,
2013-07-02 20:09:00,70.4,56.3,30.01,West,259,8.0,10.0,61,0.00,,,0.00,Wunderground v.1.15,2013-07-03 01:09:00,
2013-07-02 20:14:00,70.4,56.3,30.01,WSW,254,7.0,8.0,61,0.00,,,0.00,Wunderground v.1.15,2013-07-03 01:14:00,
2013-07-02 20:19:00,70.3,56.7,30.01,WSW,250,8.0,10.0,62,0.00,,,0.00,Wunderground v.1.15,2013-07-03 01:19:00,
2013-07-02 20:24:00,70.1,56.0,30.01,West,262,7.0,9.0,61,0.00,,,0.00,Wunderground v.1.15,2013-07-03 01:24:00,
2013-07-02 20:26:00,70.1,56.0,30.01,WSW,246,7.0,10.0,61,0.00,,,0.00,Wunderground v.1.15,2013-07-03 01:26:00,
2013-07-02 20:31:00,69.8,56.2,30.01,West,261,4.0,10.0,62,0.00,,,0.00,Wunderground v.1.15,2013-07-03 01:31:00,
2013-07-02 20:36:00,69.5,56.8,30.01,WSW,258,3.0,7.0,64,0.00,,,0.00,Wunderground v.1.15,2013-07-03 01:36:00,
2013-07-02 20:41:00,69.3,57.0,30.01,West,276,3.0,7.0,65,0.00,,,0.00,Wunderground v.1.15,2013-07-03 01:41:00,
2013-07-02 20:46:00,68.9,57.1,30.01,WNW,288,4.0,7.0,66,0.00,,,0.00,Wunderground v.1.15,2013-07-03 01:46:00,
2013-07-02 20:49:00,68.8,57.0,30.01,WNW,286,3.0,7.0,66,0.00,,,0.00,Wunderground v.1.15,2013-07-03 01:49:00,
2013-07-02 20:50:00,68.7,56.9,30.01,WNW,284,3.0,7.0,66,0.00,,,0.00,Wunderground v.1.15,2013-07-03 01:50:00,
2013-07-02 20:55:00,68.4,56.6,30.01,WNW,294,3.0,4.0,66,0.00,,,0.00,Wunderground v.1.15,2013-07-03 01:55:00,
2013-07-02 21:01:00,68.3,55.6,30.02,WNW,298,4.0,5.0,64,0.00,,,0.00,Wunderground v.1.15,2013-07-03 02:01:00,
2013-07-02 21:06:00,68.3,55.6,30.01,WNW,283,3.0,7.0,64,0.00,,,0.00,Wunderground v.1.15,2013-07-03 02:06:00,
2013-07-02 21:11:00,68.1,55.5,30.01,WNW,286,4.0,7.0,64,0.00,,,0.00,Wunderground v.1.15,2013-07-03 02:11:00,
2013-07-02 21:16:00,67.9,55.3,30.01,WNW,288,4.0,7.0,64,0.00,,,0.00,Wunderground v.1.15,2013-07-03 02:16:00,
2013-07-02 21:21:00,67.5,55.7,30.01,WNW,287,4.0,7.0,66,0.00,,,0.00,Wunderground v.1.15,2013-07-03 02:21:00,
2013-07-02 21:26:00,67.0,55.3,30.02,WNW,288,4.0,6.0,66,0.00,,,0.00,Wunderground v.1.15,2013-07-03 02:26:00,
2013-07-02 21:31:00,66.7,54.6,30.02,West,276,7.0,8.0,65,0.00,,,0.00,Wunderground v.1.15,2013-07-03 02:31:00,
2013-07-02 21:32:00,66.7,54.6,30.02,WNW,290,4.0,8.0,65,0.00,,,0.00,Wunderground v.1.15,2013-07-03 02:32:00,
2013-07-02 21:37:00,66.7,54.1,30.02,WNW,290,3.0,7.0,64,0.00,,,0.00,Wunderground v.1.15,2013-07-03 02:37:00,
2013-07-02 21:42:00,66.7,54.1,30.02,WNW,297,3.0,7.0,64,0.00,,,0.00,Wunderground v.1.15,2013-07-03 02:42:00,
2013-07-02 21:46:00,66.6,54.5,30.02,West,279,4.0,4.0,65,0.00,,,0.00,Wunderground v.1.15,2013-07-03 02:46:00,
2013-07-02 21:51:00,66.3,54.2,30.02,WNW,300,4.0,7.0,65,0.00,,,0.00,Wunderground v.1.15,2013-07-03 02:51:00,
2013-07-02 21:56:00,66.2,54.5,30.02,NW,320,4.0,5.0,66,0.00,,,0.00,Wunderground v.1.15,2013-07-03 02:56:00,
2013-07-02 22:02:00,65.4,55.0,30.02,NNW,327,4.0,5.0,69,0.00,,,0.00,Wunderground v.1.15,2013-07-03 03:02:00,
2013-07-02 22:07:00,64.6,55.0,30.02,NW,304,4.0,4.0,71,0.00,,,0.00,Wunderground v.1.15,2013-07-03 03:07:00,
2013-07-02 22:12:00,64.6,55.0,30.02,NW,312,3.0,4.0,71,0.00,,,0.00,Wunderground v.1.15,2013-07-03 03:12:00,
2013-07-02 22:17:00,64.8,55.2,30.02,NW,319,2.0,4.0,71,0.00,,,0.00,Wunderground v.1.15,2013-07-03 03:17:00,
2013-07-02 22:20:00,64.7,55.1,30.02,NW,312,3.0,4.0,71,0.00,,,0.00,Wunderground v.1.15,2013-07-03 03:20:00,
2013-07-02 22:25:00,64.6,55.0,30.02,NW,321,2.0,4.0,71,0.00,,,0.00,Wunderground v.1.15,2013-07-03 03:25:00,
2013-07-02 22:30:00,64.5,54.9,30.02,NW,325,3.0,4.0,71,0.00,,,0.00,Wunderground v.1.15,2013-07-03 03:30:00,
2013-07-02 22:36:00,64.5,54.9,30.02,NW,319,3.0,4.0,71,0.00,,,0.00,Wunderground v.1.15,2013-07-03 03:36:00,
2013-07-02 22:37:00,64.5,54.9,30.02,NW,319,3.0,4.0,71,0.00,,,0.00,Wunderground v.1.15,2013-07-03 03:37:00,
2013-07-02 22:40:00,64.5,54.9,30.02,NW,309,3.0,4.0,71,0.00,,,0.00,Wunderground v.1.15,2013-07-03 03:40:00,
2013-07-02 22:46:00,64.6,55.0,30.02,NNW,327,3.0,5.0,71,0.00,,,0.00,Wunderground v.1.15,2013-07-03 03:46:00,
2013-07-02 22:49:00,64.3,55.1,30.02,NNW,328,3.0,5.0,72,0.00,,,0.00,Wunderground v.1.15,2013-07-03 03:49:00,
2013-07-02 22:54:00,63.8,55.4,30.02,NW,325,3.0,3.0,74,0.00,,,0.00,Wunderground v.1.15,2013-07-03 03:54:00,
2013-07-02 22:59:00,63.5,55.1,30.02,NW,323,3.0,4.0,74,0.00,,,0.00,Wunderground v.1.15,2013-07-03 03:59:00,
2013-07-02 23:00:00,63.5,55.1,30.02,NW,325,3.0,4.0,74,0.00,,,0.00,Wunderground v.1.15,2013-07-03 04:00:00,
2013-07-02 23:01:00,63.5,55.1,30.02,NW,320,3.0,4.0,74,0.00,,,0.00,Wunderground v.1.15,2013-07-03 04:01:00,
2013-07-02 23:02:00,63.5,55.1,30.02,NW,318,3.0,4.0,74,0.00,,,0.00,Wunderground v.1.15,2013-07-03 04:02:00,
2013-07-02 23:03:00,63.5,55.1,30.02,NW,319,3.0,4.0,74,0.00,,,0.00,Wunderground v.1.15,2013-07-03 04:03:00,
2013-07-02 23:04:00,63.5,55.1,30.02,NW,323,2.0,4.0,74,0.00,,,0.00,Wunderground v.1.15,2013-07-03 04:04:00,
2013-07-02 23:09:00,63.7,54.9,30.02,NNW,327,2.0,4.0,73,0.00,,,0.00,Wunderground v.1.15,2013-07-03 04:09:00,
2013-07-02 23:14:00,63.8,55.0,30.02,NNW,327,3.0,4.0,73,0.00,,,0.00,Wunderground v.1.15,2013-07-03 04:14:00,
2013-07-02 23:19:00,63.9,55.1,30.02,NNW,340,3.0,4.0,73,0.00,,,0.00,Wunderground v.1.15,2013-07-03 04:19:00,
2013-07-02 23:24:00,63.5,55.1,30.02,NNW,329,4.0,4.0,74,0.00,,,0.00,Wunderground v.1.15,2013-07-03 04:24:00,
2013-07-02 23:29:00,63.2,54.8,30.02,NNW,338,3.0,4.0,74,0.00,,,0.00,Wunderground v.1.15,2013-07-03 04:29:00,
2013-07-02 23:31:00,63.2,55.1,30.02,NNW,338,3.0,4.0,75,0.00,,,0.00,Wunderground v.1.15,2013-07-03 04:31:00,
2013-07-02 23:32:00,63.1,55.0,30.02,NNW,338,3.0,4.0,75,0.00,,,0.00,Wunderground v.1.15,2013-07-03 04:32:00,
2013-07-02 23:37:00,63.1,55.0,30.02,NNW,338,3.0,3.0,75,0.00,,,0.00,Wunderground v.1.15,2013-07-03 04:37:00,
2013-07-02 23:42:00,63.1,55.0,30.02,NNW,338,3.0,3.0,75,0.00,,,0.00,Wunderground v.1.15,2013-07-03 04:42:00,
2013-07-02 23:45:00,63.2,54.8,30.02,NNW,338,4.0,4.0,74,0.00,,,0.00,Wunderground v.1.15,2013-07-03 04:45:00,
2013-07-02 23:46:00,63.2,54.8,30.02,NNW,335,4.0,4.0,74,0.00,,,0.00,Wunderground v.1.15,2013-07-03 04:46:00,
2013-07-02 23:51:00,62.9,54.9,30.02,NNW,329,3.0,4.0,75,0.00,,,0.00,Wunderground v.1.15,2013-07-03 04:51:00,
2013-07-02 23:54:00,62.8,54.8,30.02,NNW,327,4.0,4.0,75,0.00,,,0.00,Wunderground v.1.15,2013-07-03 04:54:00,
2013-07-02 23:59:00,62.9,54.9,30.02,NNW,338,3.0,4.0,75,0.00,,,0.00,Wunderground v.1.15,2013-07-03 04:59:00,